sensor_id;sensor_type;location;lat;lon;timestamp;P1;durP1;ratioP1;P2;durP2;ratioP2
20966;SDS011;10642;50.682;18.510;2023-03-23T00:01:29;27.10;;;14.67;;
20966;SDS011;10642;50.682;18.510;2023-03-23T00:03:56;21.83;;;13.70;;
20966;SDS011;10642;50.682;18.510;2023-03-23T00:06:23;26.23;;;14.50;;
20966;SDS011;10642;50.682;18.510;2023-03-23T00:08:49;21.50;;;12.47;;
20966;SDS011;10642;50.682;18.510;2023-03-23T00:11:19;19.70;;;12.30;;
20966;SDS011;10642;50.682;18.510;2023-03-23T00:13:45;21.33;;;11.93;;
20966;SDS011;10642;50.682;18.510;2023-03-23T00:16:11;18.33;;;11.67;;
20966;SDS011;10642;50.682;18.510;2023-03-23T00:18:50;20.63;;;13.43;;
20966;SDS011;10642;50.682;18.510;2023-03-23T00:21:36;18.83;;;12.97;;
20966;SDS011;10642;50.682;18.510;2023-03-23T00:24:10;24.00;;;14.10;;
20966;SDS011;10642;50.682;18.510;2023-03-23T00:26:36;26.60;;;13.03;;
20966;SDS011;10642;50.682;18.510;2023-03-23T00:29:06;22.10;;;12.37;;
20966;SDS011;10642;50.682;18.510;2023-03-23T00:31:32;19.03;;;12.83;;
20966;SDS011;10642;50.682;18.510;2023-03-23T00:34:03;21.07;;;13.07;;
20966;SDS011;10642;50.682;18.510;2023-03-23T00:36:30;16.80;;;11.80;;
20966;SDS011;10642;50.682;18.510;2023-03-23T00:38:56;23.33;;;12.83;;
20966;SDS011;10642;50.682;18.510;2023-03-23T00:41:26;17.50;;;11.80;;
20966;SDS011;10642;50.682;18.510;2023-03-23T00:43:53;22.63;;;12.17;;
20966;SDS011;10642;50.682;18.510;2023-03-23T00:46:19;23.10;;;13.03;;
20966;SDS011;10642;50.682;18.510;2023-03-23T00:48:46;17.87;;;12.17;;
20966;SDS011;10642;50.682;18.510;2023-03-23T00:51:12;17.47;;;12.03;;
20966;SDS011;10642;50.682;18.510;2023-03-23T00:53:38;23.37;;;12.90;;
20966;SDS011;10642;50.682;18.510;2023-03-23T00:56:04;17.17;;;11.23;;
20966;SDS011;10642;50.682;18.510;2023-03-23T00:58:30;18.00;;;11.93;;
20966;SDS011;10642;50.682;18.510;2023-03-23T01:00:56;20.87;;;11.40;;
20966;SDS011;10642;50.682;18.510;2023-03-23T01:03:22;20.23;;;11.83;;
20966;SDS011;10642;50.682;18.510;2023-03-23T01:05:51;16.47;;;11.20;;
20966;SDS011;10642;50.682;18.510;2023-03-23T01:08:17;17.57;;;11.33;;
20966;SDS011;10642;50.682;18.510;2023-03-23T01:10:44;18.77;;;12.57;;
20966;SDS011;10642;50.682;18.510;2023-03-23T01:13:10;17.00;;;11.53;;
20966;SDS011;10642;50.682;18.510;2023-03-23T01:15:36;19.20;;;12.23;;
20966;SDS011;10642;50.682;18.510;2023-03-23T01:18:02;19.73;;;10.97;;
20966;SDS011;10642;50.682;18.510;2023-03-23T01:20:28;17.23;;;11.20;;
20966;SDS011;10642;50.682;18.510;2023-03-23T01:22:57;19.37;;;12.27;;
20966;SDS011;10642;50.682;18.510;2023-03-23T01:25:30;19.27;;;11.80;;
20966;SDS011;10642;50.682;18.510;2023-03-23T01:27:56;20.30;;;10.90;;
20966;SDS011;10642;50.682;18.510;2023-03-23T01:30:22;18.57;;;11.33;;
20966;SDS011;10642;50.682;18.510;2023-03-23T01:32:48;21.93;;;13.03;;
20966;SDS011;10642;50.682;18.510;2023-03-23T01:35:14;20.13;;;11.17;;
20966;SDS011;10642;50.682;18.510;2023-03-23T01:37:39;21.93;;;12.17;;
20966;SDS011;10642;50.682;18.510;2023-03-23T01:40:06;17.03;;;10.60;;
20966;SDS011;10642;50.682;18.510;2023-03-23T01:42:33;18.70;;;11.53;;
20966;SDS011;10642;50.682;18.510;2023-03-23T01:47:38;18.13;;;11.23;;
20966;SDS011;10642;50.682;18.510;2023-03-23T01:50:05;17.23;;;11.23;;
20966;SDS011;10642;50.682;18.510;2023-03-23T01:52:30;18.47;;;11.50;;
20966;SDS011;10642;50.682;18.510;2023-03-23T01:55:01;19.73;;;11.20;;
20966;SDS011;10642;50.682;18.510;2023-03-23T01:57:27;15.67;;;10.37;;
20966;SDS011;10642;50.682;18.510;2023-03-23T01:59:57;18.03;;;10.93;;
20966;SDS011;10642;50.682;18.510;2023-03-23T02:02:39;17.40;;;10.83;;
20966;SDS011;10642;50.682;18.510;2023-03-23T02:05:08;17.57;;;10.90;;
20966;SDS011;10642;50.682;18.510;2023-03-23T02:07:35;20.60;;;11.70;;
20966;SDS011;10642;50.682;18.510;2023-03-23T02:10:03;19.53;;;11.30;;
20966;SDS011;10642;50.682;18.510;2023-03-23T02:12:31;17.47;;;11.40;;
20966;SDS011;10642;50.682;18.510;2023-03-23T02:14:58;17.30;;;11.03;;
20966;SDS011;10642;50.682;18.510;2023-03-23T02:17:27;18.77;;;11.70;;
20966;SDS011;10642;50.682;18.510;2023-03-23T02:33:20;17.20;;;11.00;;
20966;SDS011;10642;50.682;18.510;2023-03-23T02:38:44;17.93;;;12.00;;
20966;SDS011;10642;50.682;18.510;2023-03-23T02:41:19;18.17;;;12.20;;
20966;SDS011;10642;50.682;18.510;2023-03-23T02:43:45;16.77;;;11.47;;
20966;SDS011;10642;50.682;18.510;2023-03-23T02:46:11;17.53;;;12.13;;
20966;SDS011;10642;50.682;18.510;2023-03-23T02:48:39;16.20;;;11.43;;
20966;SDS011;10642;50.682;18.510;2023-03-23T02:51:06;22.37;;;12.07;;
20966;SDS011;10642;50.682;18.510;2023-03-23T02:53:33;22.77;;;12.03;;
20966;SDS011;10642;50.682;18.510;2023-03-23T02:56:00;17.13;;;11.40;;
20966;SDS011;10642;50.682;18.510;2023-03-23T02:58:28;17.53;;;12.00;;
20966;SDS011;10642;50.682;18.510;2023-03-23T03:00:56;17.90;;;11.57;;
20966;SDS011;10642;50.682;18.510;2023-03-23T03:03:26;18.93;;;11.10;;
20966;SDS011;10642;50.682;18.510;2023-03-23T03:06:23;15.07;;;10.20;;
20966;SDS011;10642;50.682;18.510;2023-03-23T03:09:05;17.83;;;11.00;;
20966;SDS011;10642;50.682;18.510;2023-03-23T03:11:33;15.93;;;11.27;;
20966;SDS011;10642;50.682;18.510;2023-03-23T03:17:00;14.77;;;10.77;;
20966;SDS011;10642;50.682;18.510;2023-03-23T03:21:55;16.70;;;10.47;;
20966;SDS011;10642;50.682;18.510;2023-03-23T03:24:32;15.43;;;10.53;;
20966;SDS011;10642;50.682;18.510;2023-03-23T03:26:58;16.80;;;12.30;;
20966;SDS011;10642;50.682;18.510;2023-03-23T03:29:36;16.10;;;10.80;;
20966;SDS011;10642;50.682;18.510;2023-03-23T03:32:08;15.27;;;11.00;;
20966;SDS011;10642;50.682;18.510;2023-03-23T03:34:35;17.03;;;10.00;;
20966;SDS011;10642;50.682;18.510;2023-03-23T03:37:03;16.03;;;10.30;;
20966;SDS011;10642;50.682;18.510;2023-03-23T03:39:34;20.80;;;10.57;;
20966;SDS011;10642;50.682;18.510;2023-03-23T03:42:00;14.53;;;9.57;;
20966;SDS011;10642;50.682;18.510;2023-03-23T03:44:26;15.27;;;10.20;;
20966;SDS011;10642;50.682;18.510;2023-03-23T03:46:52;16.27;;;9.57;;
20966;SDS011;10642;50.682;18.510;2023-03-23T03:49:17;15.13;;;9.67;;
20966;SDS011;10642;50.682;18.510;2023-03-23T03:51:44;18.93;;;10.43;;
20966;SDS011;10642;50.682;18.510;2023-03-23T03:54:17;16.63;;;9.30;;
20966;SDS011;10642;50.682;18.510;2023-03-23T03:56:43;19.30;;;9.90;;
20966;SDS011;10642;50.682;18.510;2023-03-23T03:59:35;18.63;;;10.13;;
20966;SDS011;10642;50.682;18.510;2023-03-23T04:02:28;21.23;;;11.53;;
20966;SDS011;10642;50.682;18.510;2023-03-23T04:04:54;23.57;;;13.87;;
20966;SDS011;10642;50.682;18.510;2023-03-23T04:07:20;27.43;;;15.80;;
20966;SDS011;10642;50.682;18.510;2023-03-23T04:09:48;31.87;;;16.20;;
20966;SDS011;10642;50.682;18.510;2023-03-23T04:12:17;27.40;;;18.40;;
20966;SDS011;10642;50.682;18.510;2023-03-23T04:15:06;28.43;;;14.80;;
20966;SDS011;10642;50.682;18.510;2023-03-23T04:17:34;33.17;;;14.47;;
20966;SDS011;10642;50.682;18.510;2023-03-23T04:20:03;23.37;;;11.90;;
20966;SDS011;10642;50.682;18.510;2023-03-23T04:22:34;17.73;;;11.10;;
20966;SDS011;10642;50.682;18.510;2023-03-23T04:25:01;18.47;;;9.97;;
20966;SDS011;10642;50.682;18.510;2023-03-23T04:27:30;21.17;;;12.57;;
20966;SDS011;10642;50.682;18.510;2023-03-23T04:29:59;17.40;;;10.70;;
20966;SDS011;10642;50.682;18.510;2023-03-23T04:32:43;18.53;;;11.07;;
20966;SDS011;10642;50.682;18.510;2023-03-23T04:35:14;17.80;;;10.60;;
20966;SDS011;10642;50.682;18.510;2023-03-23T04:37:46;22.13;;;12.73;;
20966;SDS011;10642;50.682;18.510;2023-03-23T04:40:15;15.47;;;9.63;;
20966;SDS011;10642;50.682;18.510;2023-03-23T04:42:47;14.93;;;9.00;;
20966;SDS011;10642;50.682;18.510;2023-03-23T04:45:36;19.77;;;11.63;;
20966;SDS011;10642;50.682;18.510;2023-03-23T04:48:05;17.77;;;11.53;;
20966;SDS011;10642;50.682;18.510;2023-03-23T04:50:40;13.67;;;9.60;;
20966;SDS011;10642;50.682;18.510;2023-03-23T04:53:15;16.90;;;11.07;;
20966;SDS011;10642;50.682;18.510;2023-03-23T04:55:44;16.40;;;9.93;;
20966;SDS011;10642;50.682;18.510;2023-03-23T04:58:12;14.47;;;9.37;;
20966;SDS011;10642;50.682;18.510;2023-03-23T05:00:58;16.23;;;8.90;;
20966;SDS011;10642;50.682;18.510;2023-03-23T05:03:25;16.83;;;9.47;;
20966;SDS011;10642;50.682;18.510;2023-03-23T05:05:54;13.07;;;8.70;;
20966;SDS011;10642;50.682;18.510;2023-03-23T05:08:21;28.27;;;15.73;;
20966;SDS011;10642;50.682;18.510;2023-03-23T05:10:54;30.10;;;18.27;;
20966;SDS011;10642;50.682;18.510;2023-03-23T05:13:23;18.53;;;11.73;;
20966;SDS011;10642;50.682;18.510;2023-03-23T05:15:51;20.17;;;9.97;;
20966;SDS011;10642;50.682;18.510;2023-03-23T05:18:18;17.53;;;9.77;;
20966;SDS011;10642;50.682;18.510;2023-03-23T05:20:46;16.07;;;10.10;;
20966;SDS011;10642;50.682;18.510;2023-03-23T05:23:16;17.43;;;9.47;;
20966;SDS011;10642;50.682;18.510;2023-03-23T05:25:44;15.77;;;9.47;;
20966;SDS011;10642;50.682;18.510;2023-03-23T05:28:16;12.63;;;8.97;;
20966;SDS011;10642;50.682;18.510;2023-03-23T05:30:47;13.37;;;9.27;;
20966;SDS011;10642;50.682;18.510;2023-03-23T05:33:15;15.03;;;9.80;;
20966;SDS011;10642;50.682;18.510;2023-03-23T05:36:01;14.27;;;9.70;;
20966;SDS011;10642;50.682;18.510;2023-03-23T05:38:34;14.03;;;9.10;;
20966;SDS011;10642;50.682;18.510;2023-03-23T05:41:03;15.93;;;9.73;;
20966;SDS011;10642;50.682;18.510;2023-03-23T05:43:37;16.27;;;9.57;;
20966;SDS011;10642;50.682;18.510;2023-03-23T05:46:32;14.07;;;9.10;;
20966;SDS011;10642;50.682;18.510;2023-03-23T05:49:00;16.60;;;9.77;;
20966;SDS011;10642;50.682;18.510;2023-03-23T05:51:34;14.33;;;8.70;;
20966;SDS011;10642;50.682;18.510;2023-03-23T05:54:00;15.00;;;9.10;;
20966;SDS011;10642;50.682;18.510;2023-03-23T05:56:26;13.87;;;8.60;;
20966;SDS011;10642;50.682;18.510;2023-03-23T05:59:11;14.70;;;8.77;;
20966;SDS011;10642;50.682;18.510;2023-03-23T06:01:39;12.13;;;8.80;;
20966;SDS011;10642;50.682;18.510;2023-03-23T06:04:05;12.23;;;8.40;;
20966;SDS011;10642;50.682;18.510;2023-03-23T06:06:49;17.93;;;10.80;;
20966;SDS011;10642;50.682;18.510;2023-03-23T06:09:14;18.90;;;9.03;;
20966;SDS011;10642;50.682;18.510;2023-03-23T06:12:02;14.70;;;8.90;;
20966;SDS011;10642;50.682;18.510;2023-03-23T06:14:42;15.57;;;8.47;;
20966;SDS011;10642;50.682;18.510;2023-03-23T06:17:10;17.90;;;8.90;;
20966;SDS011;10642;50.682;18.510;2023-03-23T06:19:36;17.00;;;8.80;;
20966;SDS011;10642;50.682;18.510;2023-03-23T06:22:07;15.33;;;8.47;;
20966;SDS011;10642;50.682;18.510;2023-03-23T06:24:48;13.60;;;8.13;;
20966;SDS011;10642;50.682;18.510;2023-03-23T06:27:19;17.80;;;8.03;;
20966;SDS011;10642;50.682;18.510;2023-03-23T06:29:45;11.10;;;7.60;;
20966;SDS011;10642;50.682;18.510;2023-03-23T06:32:12;15.87;;;9.17;;
20966;SDS011;10642;50.682;18.510;2023-03-23T06:34:41;17.63;;;11.33;;
20966;SDS011;10642;50.682;18.510;2023-03-23T06:37:28;11.93;;;7.70;;
20966;SDS011;10642;50.682;18.510;2023-03-23T06:40:10;15.43;;;8.57;;
20966;SDS011;10642;50.682;18.510;2023-03-23T06:42:38;13.00;;;7.70;;
20966;SDS011;10642;50.682;18.510;2023-03-23T06:45:39;13.07;;;6.67;;
20966;SDS011;10642;50.682;18.510;2023-03-23T06:48:37;11.50;;;7.33;;
20966;SDS011;10642;50.682;18.510;2023-03-23T06:51:04;14.37;;;8.50;;
20966;SDS011;10642;50.682;18.510;2023-03-23T06:53:32;12.77;;;7.87;;
20966;SDS011;10642;50.682;18.510;2023-03-23T06:55:58;13.67;;;7.90;;
20966;SDS011;10642;50.682;18.510;2023-03-23T06:58:24;13.13;;;8.03;;
20966;SDS011;10642;50.682;18.510;2023-03-23T07:00:54;15.07;;;8.13;;
20966;SDS011;10642;50.682;18.510;2023-03-23T07:03:27;13.60;;;6.63;;
20966;SDS011;10642;50.682;18.510;2023-03-23T07:05:54;13.60;;;8.43;;
20966;SDS011;10642;50.682;18.510;2023-03-23T07:08:24;14.43;;;8.80;;
20966;SDS011;10642;50.682;18.510;2023-03-23T07:10:51;13.73;;;7.73;;
20966;SDS011;10642;50.682;18.510;2023-03-23T07:13:21;12.60;;;7.77;;
20966;SDS011;10642;50.682;18.510;2023-03-23T07:15:51;11.90;;;8.30;;
20966;SDS011;10642;50.682;18.510;2023-03-23T07:18:17;12.40;;;8.23;;
20966;SDS011;10642;50.682;18.510;2023-03-23T07:20:49;14.33;;;8.57;;
20966;SDS011;10642;50.682;18.510;2023-03-23T07:23:17;12.20;;;7.47;;
20966;SDS011;10642;50.682;18.510;2023-03-23T07:26:04;15.83;;;8.30;;
20966;SDS011;10642;50.682;18.510;2023-03-23T07:28:36;16.90;;;8.37;;
20966;SDS011;10642;50.682;18.510;2023-03-23T07:31:16;11.60;;;7.30;;
20966;SDS011;10642;50.682;18.510;2023-03-23T07:33:42;10.77;;;6.60;;
20966;SDS011;10642;50.682;18.510;2023-03-23T07:36:09;14.00;;;8.40;;
20966;SDS011;10642;50.682;18.510;2023-03-23T07:38:36;11.70;;;7.50;;
20966;SDS011;10642;50.682;18.510;2023-03-23T07:41:03;12.63;;;8.20;;
20966;SDS011;10642;50.682;18.510;2023-03-23T07:43:30;12.33;;;7.63;;
20966;SDS011;10642;50.682;18.510;2023-03-23T07:45:56;10.93;;;7.87;;
20966;SDS011;10642;50.682;18.510;2023-03-23T07:48:26;11.90;;;7.20;;
20966;SDS011;10642;50.682;18.510;2023-03-23T07:50:52;18.47;;;7.80;;
20966;SDS011;10642;50.682;18.510;2023-03-23T07:53:19;13.27;;;7.33;;
20966;SDS011;10642;50.682;18.510;2023-03-23T07:55:54;11.43;;;7.57;;
20966;SDS011;10642;50.682;18.510;2023-03-23T07:58:46;10.80;;;7.07;;
20966;SDS011;10642;50.682;18.510;2023-03-23T08:01:12;13.27;;;7.20;;
20966;SDS011;10642;50.682;18.510;2023-03-23T08:03:41;11.70;;;7.97;;
20966;SDS011;10642;50.682;18.510;2023-03-23T08:06:32;13.00;;;7.20;;
20966;SDS011;10642;50.682;18.510;2023-03-23T08:09:17;12.60;;;7.57;;
20966;SDS011;10642;50.682;18.510;2023-03-23T08:12:05;10.77;;;5.70;;
20966;SDS011;10642;50.682;18.510;2023-03-23T08:14:43;9.83;;;6.33;;
20966;SDS011;10642;50.682;18.510;2023-03-23T08:17:33;11.03;;;7.57;;
20966;SDS011;10642;50.682;18.510;2023-03-23T08:20:22;10.67;;;6.60;;
20966;SDS011;10642;50.682;18.510;2023-03-23T08:23:09;10.67;;;6.17;;
20966;SDS011;10642;50.682;18.510;2023-03-23T08:25:54;11.23;;;6.50;;
20966;SDS011;10642;50.682;18.510;2023-03-23T08:28:26;10.73;;;6.93;;
20966;SDS011;10642;50.682;18.510;2023-03-23T08:31:13;10.97;;;6.47;;
20966;SDS011;10642;50.682;18.510;2023-03-23T08:34:05;11.77;;;7.60;;
20966;SDS011;10642;50.682;18.510;2023-03-23T08:37:03;12.87;;;7.70;;
20966;SDS011;10642;50.682;18.510;2023-03-23T08:39:51;10.83;;;6.73;;
20966;SDS011;10642;50.682;18.510;2023-03-23T08:42:35;13.10;;;7.20;;
20966;SDS011;10642;50.682;18.510;2023-03-23T08:45:20;10.00;;;5.80;;
20966;SDS011;10642;50.682;18.510;2023-03-23T08:48:05;12.17;;;6.27;;
20966;SDS011;10642;50.682;18.510;2023-03-23T08:51:11;13.23;;;6.43;;
20966;SDS011;10642;50.682;18.510;2023-03-23T08:53:54;9.73;;;6.30;;
20966;SDS011;10642;50.682;18.510;2023-03-23T08:56:48;9.83;;;6.87;;
20966;SDS011;10642;50.682;18.510;2023-03-23T08:59:29;11.13;;;6.07;;
20966;SDS011;10642;50.682;18.510;2023-03-23T09:02:01;11.60;;;5.33;;
20966;SDS011;10642;50.682;18.510;2023-03-23T09:04:56;11.40;;;7.33;;
20966;SDS011;10642;50.682;18.510;2023-03-23T09:07:45;9.23;;;5.33;;
20966;SDS011;10642;50.682;18.510;2023-03-23T09:10:11;15.57;;;4.47;;
20966;SDS011;10642;50.682;18.510;2023-03-23T09:12:38;11.40;;;6.37;;
20966;SDS011;10642;50.682;18.510;2023-03-23T09:15:04;13.70;;;5.80;;
20966;SDS011;10642;50.682;18.510;2023-03-23T09:17:39;14.93;;;7.20;;
20966;SDS011;10642;50.682;18.510;2023-03-23T09:20:06;11.80;;;6.83;;
20966;SDS011;10642;50.682;18.510;2023-03-23T09:22:36;8.60;;;4.80;;
20966;SDS011;10642;50.682;18.510;2023-03-23T09:25:02;5.87;;;4.00;;
20966;SDS011;10642;50.682;18.510;2023-03-23T09:27:27;5.93;;;4.00;;
20966;SDS011;10642;50.682;18.510;2023-03-23T09:29:53;9.90;;;6.73;;
20966;SDS011;10642;50.682;18.510;2023-03-23T09:32:20;3.90;;;2.63;;
20966;SDS011;10642;50.682;18.510;2023-03-23T09:34:48;10.10;;;4.67;;
20966;SDS011;10642;50.682;18.510;2023-03-23T09:37:13;14.03;;;6.27;;
20966;SDS011;10642;50.682;18.510;2023-03-23T09:39:39;9.13;;;4.37;;
20966;SDS011;10642;50.682;18.510;2023-03-23T09:44:53;7.30;;;4.33;;
20966;SDS011;10642;50.682;18.510;2023-03-23T09:52:18;10.50;;;5.10;;
20966;SDS011;10642;50.682;18.510;2023-03-23T09:54:48;8.17;;;4.90;;
20966;SDS011;10642;50.682;18.510;2023-03-23T09:57:28;7.20;;;3.93;;
20966;SDS011;10642;50.682;18.510;2023-03-23T10:00:01;7.07;;;3.30;;
20966;SDS011;10642;50.682;18.510;2023-03-23T10:02:59;5.93;;;3.23;;
20966;SDS011;10642;50.682;18.510;2023-03-23T10:07:57;5.43;;;3.73;;
20966;SDS011;10642;50.682;18.510;2023-03-23T10:10:26;5.60;;;4.00;;
20966;SDS011;10642;50.682;18.510;2023-03-23T10:12:56;8.23;;;3.73;;
20966;SDS011;10642;50.682;18.510;2023-03-23T10:15:26;6.43;;;3.37;;
20966;SDS011;10642;50.682;18.510;2023-03-23T10:18:10;8.53;;;3.30;;
20966;SDS011;10642;50.682;18.510;2023-03-23T10:26:33;3.83;;;2.43;;
20966;SDS011;10642;50.682;18.510;2023-03-23T10:28:38;17.20;;;3.60;;
20966;SDS011;10642;50.682;18.510;2023-03-23T10:31:05;6.40;;;2.97;;
20966;SDS011;10642;50.682;18.510;2023-03-23T10:36:05;9.57;;;3.97;;
20966;SDS011;10642;50.682;18.510;2023-03-23T10:38:38;7.20;;;4.50;;
20966;SDS011;10642;50.682;18.510;2023-03-23T10:41:23;8.33;;;4.60;;
20966;SDS011;10642;50.682;18.510;2023-03-23T10:43:49;9.77;;;4.73;;
20966;SDS011;10642;50.682;18.510;2023-03-23T10:48:40;6.43;;;4.37;;
20966;SDS011;10642;50.682;18.510;2023-03-23T10:51:10;8.90;;;4.53;;
20966;SDS011;10642;50.682;18.510;2023-03-23T10:53:38;6.77;;;4.80;;
20966;SDS011;10642;50.682;18.510;2023-03-23T10:56:05;5.90;;;3.40;;
20966;SDS011;10642;50.682;18.510;2023-03-23T10:58:32;8.20;;;4.03;;
20966;SDS011;10642;50.682;18.510;2023-03-23T11:00:59;6.00;;;4.43;;
20966;SDS011;10642;50.682;18.510;2023-03-23T11:06:01;2.30;;;1.43;;
20966;SDS011;10642;50.682;18.510;2023-03-23T11:08:30;8.13;;;4.70;;
20966;SDS011;10642;50.682;18.510;2023-03-23T11:11:06;9.13;;;4.63;;
20966;SDS011;10642;50.682;18.510;2023-03-23T11:13:32;8.63;;;3.63;;
20966;SDS011;10642;50.682;18.510;2023-03-23T11:15:59;5.37;;;3.50;;
20966;SDS011;10642;50.682;18.510;2023-03-23T11:18:35;8.47;;;4.80;;
20966;SDS011;10642;50.682;18.510;2023-03-23T11:21:01;7.60;;;4.23;;
20966;SDS011;10642;50.682;18.510;2023-03-23T11:23:38;5.03;;;2.77;;
20966;SDS011;10642;50.682;18.510;2023-03-23T11:28:43;4.73;;;3.43;;
20966;SDS011;10642;50.682;18.510;2023-03-23T11:31:11;9.60;;;4.30;;
20966;SDS011;10642;50.682;18.510;2023-03-23T11:33:58;6.60;;;4.80;;
20966;SDS011;10642;50.682;18.510;2023-03-23T11:36:40;8.90;;;5.30;;
20966;SDS011;10642;50.682;18.510;2023-03-23T11:41:52;6.87;;;3.77;;
20966;SDS011;10642;50.682;18.510;2023-03-23T11:44:18;11.17;;;5.20;;
20966;SDS011;10642;50.682;18.510;2023-03-23T11:49:15;5.43;;;3.47;;
20966;SDS011;10642;50.682;18.510;2023-03-23T11:51:48;6.67;;;3.33;;
20966;SDS011;10642;50.682;18.510;2023-03-23T11:54:34;10.00;;;4.40;;
20966;SDS011;10642;50.682;18.510;2023-03-23T11:57:06;12.10;;;6.33;;
20966;SDS011;10642;50.682;18.510;2023-03-23T11:59:32;11.77;;;6.67;;
20966;SDS011;10642;50.682;18.510;2023-03-23T12:02:03;8.67;;;5.77;;
20966;SDS011;10642;50.682;18.510;2023-03-23T12:12:32;9.17;;;5.17;;
20966;SDS011;10642;50.682;18.510;2023-03-23T12:23:21;12.50;;;6.83;;
20966;SDS011;10642;50.682;18.510;2023-03-23T12:36:02;9.87;;;5.43;;
20966;SDS011;10642;50.682;18.510;2023-03-23T12:41:21;10.43;;;5.07;;
20966;SDS011;10642;50.682;18.510;2023-03-23T12:48:55;21.67;;;5.57;;
20966;SDS011;10642;50.682;18.510;2023-03-23T12:51:26;7.40;;;4.20;;
20966;SDS011;10642;50.682;18.510;2023-03-23T12:54:07;6.00;;;4.00;;
20966;SDS011;10642;50.682;18.510;2023-03-23T13:01:49;7.80;;;3.20;;
20966;SDS011;10642;50.682;18.510;2023-03-23T13:07:12;6.70;;;3.40;;
20966;SDS011;10642;50.682;18.510;2023-03-23T13:12:09;4.60;;;2.43;;
20966;SDS011;10642;50.682;18.510;2023-03-23T13:24:52;11.33;;;7.17;;
20966;SDS011;10642;50.682;18.510;2023-03-23T13:27:23;6.83;;;4.67;;
20966;SDS011;10642;50.682;18.510;2023-03-23T13:29:49;9.70;;;5.73;;
20966;SDS011;10642;50.682;18.510;2023-03-23T13:32:16;9.20;;;4.20;;
20966;SDS011;10642;50.682;18.510;2023-03-23T13:34:42;6.07;;;3.10;;
20966;SDS011;10642;50.682;18.510;2023-03-23T13:37:10;3.90;;;2.33;;
20966;SDS011;10642;50.682;18.510;2023-03-23T13:39:38;6.03;;;2.90;;
20966;SDS011;10642;50.682;18.510;2023-03-23T13:44:44;6.07;;;3.57;;
20966;SDS011;10642;50.682;18.510;2023-03-23T13:49:57;3.10;;;1.93;;
20966;SDS011;10642;50.682;18.510;2023-03-23T13:52:24;5.53;;;2.13;;
20966;SDS011;10642;50.682;18.510;2023-03-23T13:54:51;3.80;;;2.33;;
20966;SDS011;10642;50.682;18.510;2023-03-23T13:59:47;2.73;;;1.50;;
20966;SDS011;10642;50.682;18.510;2023-03-23T14:02:32;3.03;;;1.90;;
20966;SDS011;10642;50.682;18.510;2023-03-23T14:05:25;10.53;;;1.70;;
20966;SDS011;10642;50.682;18.510;2023-03-23T14:13:18;4.43;;;1.60;;
20966;SDS011;10642;50.682;18.510;2023-03-23T14:15:54;3.87;;;1.67;;
20966;SDS011;10642;50.682;18.510;2023-03-23T14:18:20;3.00;;;1.57;;
20966;SDS011;10642;50.682;18.510;2023-03-23T14:20:47;5.13;;;1.80;;
20966;SDS011;10642;50.682;18.510;2023-03-23T14:23:17;4.37;;;1.93;;
20966;SDS011;10642;50.682;18.510;2023-03-23T14:25:43;3.83;;;2.10;;
20966;SDS011;10642;50.682;18.510;2023-03-23T14:28:19;4.40;;;1.80;;
20966;SDS011;10642;50.682;18.510;2023-03-23T14:30:46;4.23;;;2.37;;
20966;SDS011;10642;50.682;18.510;2023-03-23T14:33:12;4.07;;;2.23;;
20966;SDS011;10642;50.682;18.510;2023-03-23T14:35:39;3.07;;;1.67;;
20966;SDS011;10642;50.682;18.510;2023-03-23T14:38:06;4.87;;;2.03;;
20966;SDS011;10642;50.682;18.510;2023-03-23T14:40:36;3.67;;;1.83;;
20966;SDS011;10642;50.682;18.510;2023-03-23T14:43:02;5.03;;;1.80;;
20966;SDS011;10642;50.682;18.510;2023-03-23T14:45:30;9.47;;;3.60;;
20966;SDS011;10642;50.682;18.510;2023-03-23T14:47:57;10.87;;;4.27;;
20966;SDS011;10642;50.682;18.510;2023-03-23T14:52:49;14.97;;;4.57;;
20966;SDS011;10642;50.682;18.510;2023-03-23T14:55:22;11.10;;;4.23;;
20966;SDS011;10642;50.682;18.510;2023-03-23T14:57:48;28.53;;;10.43;;
20966;SDS011;10642;50.682;18.510;2023-03-23T15:00:19;18.87;;;8.00;;
20966;SDS011;10642;50.682;18.510;2023-03-23T15:02:50;16.40;;;8.87;;
20966;SDS011;10642;50.682;18.510;2023-03-23T15:05:21;6.10;;;3.27;;
20966;SDS011;10642;50.682;18.510;2023-03-23T15:07:50;6.67;;;3.13;;
20966;SDS011;10642;50.682;18.510;2023-03-23T15:10:18;8.17;;;5.17;;
20966;SDS011;10642;50.682;18.510;2023-03-23T15:12:45;6.97;;;2.60;;
20966;SDS011;10642;50.682;18.510;2023-03-23T15:15:21;7.87;;;3.83;;
20966;SDS011;10642;50.682;18.510;2023-03-23T15:17:48;5.57;;;2.70;;
20966;SDS011;10642;50.682;18.510;2023-03-23T15:20:31;8.13;;;2.20;;
20966;SDS011;10642;50.682;18.510;2023-03-23T15:23:04;4.07;;;1.87;;
20966;SDS011;10642;50.682;18.510;2023-03-23T15:25:32;4.73;;;2.20;;
20966;SDS011;10642;50.682;18.510;2023-03-23T15:30:35;2.80;;;1.87;;
20966;SDS011;10642;50.682;18.510;2023-03-23T15:33:10;5.70;;;2.23;;
20966;SDS011;10642;50.682;18.510;2023-03-23T15:35:38;2.83;;;1.87;;
20966;SDS011;10642;50.682;18.510;2023-03-23T15:38:05;4.40;;;2.23;;
20966;SDS011;10642;50.682;18.510;2023-03-23T15:40:32;4.43;;;2.50;;
20966;SDS011;10642;50.682;18.510;2023-03-23T15:43:32;5.37;;;2.40;;
20966;SDS011;10642;50.682;18.510;2023-03-23T15:45:52;7.37;;;3.00;;
20966;SDS011;10642;50.682;18.510;2023-03-23T15:48:19;8.90;;;3.40;;
20966;SDS011;10642;50.682;18.510;2023-03-23T15:50:45;4.50;;;2.60;;
20966;SDS011;10642;50.682;18.510;2023-03-23T15:53:34;7.10;;;3.83;;
20966;SDS011;10642;50.682;18.510;2023-03-23T15:56:02;4.93;;;3.03;;
20966;SDS011;10642;50.682;18.510;2023-03-23T15:58:29;4.13;;;2.43;;
20966;SDS011;10642;50.682;18.510;2023-03-23T16:00:56;3.83;;;2.33;;
20966;SDS011;10642;50.682;18.510;2023-03-23T16:03:30;3.57;;;2.30;;
20966;SDS011;10642;50.682;18.510;2023-03-23T16:05:59;5.73;;;2.60;;
20966;SDS011;10642;50.682;18.510;2023-03-23T16:08:29;4.33;;;2.40;;
20966;SDS011;10642;50.682;18.510;2023-03-23T16:10:57;4.50;;;2.43;;
20966;SDS011;10642;50.682;18.510;2023-03-23T16:13:26;6.47;;;2.50;;
20966;SDS011;10642;50.682;18.510;2023-03-23T16:15:53;4.87;;;2.57;;
20966;SDS011;10642;50.682;18.510;2023-03-23T16:18:21;6.13;;;2.70;;
20966;SDS011;10642;50.682;18.510;2023-03-23T16:20:49;9.77;;;2.60;;
20966;SDS011;10642;50.682;18.510;2023-03-23T16:23:17;3.77;;;2.17;;
20966;SDS011;10642;50.682;18.510;2023-03-23T16:25:44;4.10;;;1.90;;
20966;SDS011;10642;50.682;18.510;2023-03-23T16:28:12;4.67;;;2.60;;
20966;SDS011;10642;50.682;18.510;2023-03-23T16:30:41;4.80;;;2.60;;
20966;SDS011;10642;50.682;18.510;2023-03-23T16:33:09;6.33;;;2.80;;
20966;SDS011;10642;50.682;18.510;2023-03-23T16:35:36;7.63;;;2.57;;
20966;SDS011;10642;50.682;18.510;2023-03-23T16:38:04;6.40;;;2.90;;
20966;SDS011;10642;50.682;18.510;2023-03-23T16:40:35;20.27;;;8.90;;
20966;SDS011;10642;50.682;18.510;2023-03-23T16:43:03;24.40;;;11.40;;
20966;SDS011;10642;50.682;18.510;2023-03-23T16:45:36;21.10;;;10.00;;
20966;SDS011;10642;50.682;18.510;2023-03-23T16:48:04;17.07;;;7.77;;
20966;SDS011;10642;50.682;18.510;2023-03-23T16:50:31;14.17;;;8.03;;
20966;SDS011;10642;50.682;18.510;2023-03-23T16:52:58;12.87;;;7.40;;
20966;SDS011;10642;50.682;18.510;2023-03-23T16:55:25;16.87;;;8.37;;